createdAt,value
2023-03-08T00:01:16.198Z,4.25
2023-03-08T00:06:17.869Z,3.55
2023-03-08T00:11:19.795Z,4.78
2023-03-08T00:16:21.948Z,5.70
2023-03-08T00:21:23.698Z,3.20
2023-03-08T00:26:25.402Z,4.95
2023-03-08T00:31:27.163Z,4.70
2023-03-08T00:36:28.963Z,4.78
2023-03-08T00:41:30.683Z,4.15
2023-03-08T00:46:32.540Z,3.90
2023-03-08T00:51:34.312Z,5.80
2023-03-08T00:56:36.057Z,6.93
2023-03-08T01:01:37.724Z,5.20
2023-03-08T01:06:40.102Z,5.68
2023-03-08T01:11:43.284Z,6.95
2023-03-08T01:16:45.010Z,6.40
2023-03-08T01:21:46.717Z,11.27
2023-03-08T01:26:48.406Z,10.65
2023-03-08T01:31:50.099Z,12.32
2023-03-08T01:36:51.829Z,10.82
2023-03-08T01:41:53.525Z,11.35
2023-03-08T01:46:55.177Z,11.82
2023-03-08T01:52:13.647Z,10.50
2023-03-08T01:57:23.675Z,9.75
2023-03-08T02:02:31.346Z,14.18
2023-03-08T02:07:33.008Z,10.57
2023-03-08T02:12:35.920Z,10.52
2023-03-08T02:17:39.696Z,11.07
2023-03-08T02:22:43.225Z,9.43
2023-03-08T02:27:45.341Z,9.63
2023-03-08T02:32:47.057Z,14.00
2023-03-08T02:37:48.835Z,13.50
2023-03-08T02:42:53.200Z,11.95
2023-03-08T02:47:55.107Z,10.63
2023-03-08T02:52:57.049Z,11.27
2023-03-08T02:57:58.828Z,9.38
2023-03-08T03:03:00.574Z,6.93
2023-03-08T03:08:02.342Z,10.77
2023-03-08T03:13:05.098Z,8.50
2023-03-08T03:18:06.947Z,10.00
2023-03-08T03:23:08.875Z,9.82
2023-03-08T03:28:10.578Z,9.13
2023-03-08T03:33:12.253Z,9.63
2023-03-08T03:38:13.997Z,7.55
2023-03-08T03:43:15.745Z,6.28
2023-03-08T03:48:17.400Z,7.22
2023-03-08T03:53:19.126Z,6.93
2023-03-08T03:58:21.032Z,8.30
2023-03-08T04:03:22.899Z,9.63
2023-03-08T04:08:24.696Z,7.20
2023-03-08T04:13:26.470Z,7.57
2023-03-08T04:18:28.241Z,8.52
2023-03-08T04:23:30.317Z,8.48
2023-03-08T04:28:33.782Z,6.75
2023-03-08T04:33:35.526Z,8.70
2023-03-08T04:38:37.340Z,8.10
2023-03-08T04:43:41.149Z,7.38
2023-03-08T04:48:42.902Z,8.85
2023-03-08T04:53:45.489Z,7.30
2023-03-08T04:58:47.757Z,5.80
2023-03-08T05:03:50.154Z,5.25
2023-03-08T05:08:52.524Z,6.20
2023-03-08T05:13:55.585Z,8.13
2023-03-08T05:18:57.285Z,7.95
2023-03-08T05:24:00.426Z,6.45
2023-03-08T05:29:03.725Z,6.60
2023-03-08T05:34:05.457Z,10.15
2023-03-08T05:39:07.246Z,7.97
2023-03-08T05:44:09.034Z,12.15
2023-03-08T05:49:10.744Z,8.30
2023-03-08T05:54:12.541Z,11.43
2023-03-08T05:59:14.313Z,9.73
2023-03-08T06:04:16.046Z,10.13
2023-03-08T06:09:19.080Z,10.32
2023-03-08T06:14:20.975Z,11.82
2023-03-08T06:19:22.860Z,9.70
2023-03-08T06:24:24.566Z,9.02
2023-03-08T06:29:26.440Z,10.18
2023-03-08T06:34:28.194Z,11.18
2023-03-08T06:39:31.654Z,11.88
2023-03-08T06:44:33.931Z,10.13
2023-03-08T06:49:35.771Z,11.55
2023-03-08T06:54:37.502Z,12.52
2023-03-08T06:59:39.302Z,12.05
2023-03-08T07:04:41.029Z,12.45
2023-03-08T07:09:42.787Z,11.40
2023-03-08T07:14:44.493Z,12.25
2023-03-08T07:19:46.199Z,13.45
2023-03-08T07:24:49.704Z,13.18
2023-03-08T07:29:52.045Z,11.43
2023-03-08T07:34:53.735Z,9.82
2023-03-08T07:39:55.449Z,14.30
2023-03-08T07:44:57.190Z,11.73
2023-03-08T07:49:59.526Z,29.50
2023-03-08T07:55:02.721Z,10.63
2023-03-08T08:00:08.952Z,12.15
2023-03-08T08:05:10.830Z,10.00
2023-03-08T08:10:12.636Z,8.70
2023-03-08T08:15:14.396Z,6.57
2023-03-08T08:20:16.353Z,9.35
2023-03-08T08:25:18.111Z,6.50
2023-03-08T08:30:20.401Z,9.63
2023-03-08T08:35:25.477Z,10.98
2023-03-08T08:40:37.143Z,9.00
2023-03-08T08:45:44.517Z,10.02
2023-03-08T08:50:46.889Z,8.20
2023-03-08T08:55:48.626Z,10.45
2023-03-08T09:01:14.602Z,9.68
2023-03-08T09:06:20.344Z,8.45
2023-03-08T09:11:23.409Z,8.10
2023-03-08T09:16:30.663Z,9.70
2023-03-08T09:21:33.284Z,15.88
2023-03-08T09:26:35.062Z,14.02
2023-03-08T09:31:39.443Z,8.88
2023-03-08T09:36:41.924Z,8.00
2023-03-08T09:42:01.418Z,10.43
2023-03-08T09:47:13.647Z,9.35
2023-03-08T09:52:33.525Z,8.43
2023-03-08T09:57:45.842Z,9.75
2023-03-08T10:03:26.331Z,8.88
2023-03-08T10:08:45.312Z,10.73
2023-03-08T10:13:54.233Z,13.27
2023-03-08T10:19:05.729Z,10.18
2023-03-08T10:24:07.433Z,13.07
2023-03-08T10:29:12.522Z,8.98
2023-03-08T10:34:17.408Z,9.43
2023-03-08T10:39:20.977Z,8.85
2023-03-08T10:44:52.902Z,8.98
2023-03-08T10:50:18.085Z,9.45
2023-03-08T10:55:30.148Z,15.00
2023-03-08T11:00:41.140Z,9.00
2023-03-08T11:06:18.426Z,6.10
2023-03-08T11:11:20.348Z,3.72
2023-03-08T11:16:36.855Z,3.67
2023-03-08T11:21:44.602Z,3.55
2023-03-08T11:27:06.795Z,3.28
2023-03-08T11:32:58.243Z,5.40
2023-03-08T11:38:17.745Z,6.13
2023-03-08T11:43:45.191Z,5.00
2023-03-08T11:54:55.609Z,8.30
2023-03-08T12:00:13.087Z,8.45
2023-03-08T12:05:29.408Z,8.25
2023-03-08T12:10:50.554Z,12.77
2023-03-08T12:16:11.200Z,11.98
2023-03-08T12:22:03.447Z,9.05
2023-03-08T12:27:24.159Z,10.27
2023-03-08T12:32:26.984Z,11.00
2023-03-08T12:37:30.702Z,11.40
2023-03-08T12:42:40.660Z,10.95
2023-03-08T12:47:42.416Z,11.65
2023-03-08T12:52:52.960Z,10.45
2023-03-08T12:57:56.166Z,10.30
2023-03-08T13:03:13.276Z,11.07
2023-03-08T13:08:15.138Z,9.63
2023-03-08T13:13:40.307Z,13.48
2023-03-08T13:18:43.895Z,9.95
2023-03-08T13:24:17.261Z,10.48
2023-03-08T13:29:21.202Z,10.98
2023-03-08T13:34:31.736Z,10.60
2023-03-08T13:39:33.648Z,12.25
2023-03-08T13:44:35.680Z,12.10
2023-03-08T13:49:42.000Z,12.40
2023-03-08T13:54:48.635Z,11.43
2023-03-08T13:59:55.740Z,11.57
2023-03-08T14:04:58.745Z,10.80
2023-03-08T14:10:00.552Z,11.77
2023-03-08T14:15:04.654Z,14.60
2023-03-08T14:20:22.292Z,16.02
2023-03-08T14:25:32.612Z,14.05
2023-03-08T14:30:34.378Z,13.70
2023-03-08T14:35:39.693Z,14.48
2023-03-08T14:40:49.452Z,14.60
2023-03-08T14:46:04.728Z,12.30
2023-03-08T14:51:19.839Z,22.10
2023-03-08T14:56:21.595Z,14.13
2023-03-08T15:01:35.878Z,15.27
2023-03-08T15:06:40.227Z,17.60
2023-03-08T15:11:42.985Z,16.08
2023-03-08T15:16:44.780Z,16.48
2023-03-08T15:21:47.232Z,14.75
2023-03-08T15:26:48.960Z,15.43
2023-03-08T15:31:50.680Z,22.65
2023-03-08T15:36:53.492Z,17.42
2023-03-08T15:41:55.165Z,16.10
2023-03-08T15:46:56.964Z,15.20
2023-03-08T15:51:58.734Z,14.73
2023-03-08T15:57:00.535Z,15.93
2023-03-08T16:02:02.426Z,21.33
2023-03-08T16:07:04.731Z,16.40
2023-03-08T16:12:06.632Z,17.20
2023-03-08T16:17:09.103Z,16.27
2023-03-08T16:22:11.153Z,17.33
2023-03-08T16:27:13.015Z,14.95
2023-03-08T16:32:18.540Z,12.88
2023-03-08T16:37:21.077Z,15.88
2023-03-08T16:42:22.924Z,16.77
2023-03-08T16:47:26.612Z,19.23
2023-03-08T16:52:28.513Z,17.65
2023-03-08T16:57:30.234Z,19.75
2023-03-08T17:02:31.981Z,18.80
2023-03-08T17:07:33.835Z,19.70
2023-03-08T17:12:36.279Z,20.52
2023-03-08T17:17:41.405Z,20.90
2023-03-08T17:22:43.100Z,21.30
2023-03-08T17:27:44.823Z,23.35
2023-03-08T17:32:46.530Z,20.10
2023-03-08T17:37:50.038Z,21.38
2023-03-08T17:42:51.832Z,20.90
2023-03-08T17:48:00.507Z,27.42
2023-03-08T17:53:02.626Z,26.50
2023-03-08T17:58:04.290Z,22.17
2023-03-08T18:03:05.973Z,21.63
2023-03-08T18:08:07.686Z,23.98
2023-03-08T18:13:09.765Z,21.80
2023-03-08T18:18:11.455Z,22.73
2023-03-08T18:23:13.570Z,24.00
2023-03-08T18:28:16.617Z,24.63
2023-03-08T18:33:21.915Z,24.92
2023-03-08T18:38:24.692Z,28.77
2023-03-08T18:43:26.528Z,27.88
2023-03-08T18:48:28.239Z,28.52
2023-03-08T18:53:29.971Z,25.02
2023-03-08T18:58:32.053Z,28.83
2023-03-08T19:03:33.693Z,23.33
2023-03-08T19:08:35.714Z,25.40
2023-03-08T19:13:37.465Z,24.98
2023-03-08T19:18:39.150Z,21.67
2023-03-08T19:23:40.951Z,23.77
2023-03-08T19:28:42.636Z,23.27
2023-03-08T19:33:49.342Z,21.27
2023-03-08T19:38:51.151Z,22.85
2023-03-08T19:43:52.896Z,24.02
2023-03-08T19:48:55.031Z,22.40
2023-03-08T19:53:56.798Z,22.50
2023-03-08T19:58:59.432Z,25.88
2023-03-08T20:04:01.564Z,23.35
2023-03-08T20:09:05.159Z,23.92
2023-03-08T20:14:08.180Z,21.17
2023-03-08T20:19:10.101Z,23.95
2023-03-08T20:24:11.928Z,24.77
2023-03-08T20:29:13.972Z,23.70
2023-03-08T20:34:16.858Z,23.15
2023-03-08T20:39:18.580Z,19.40
2023-03-08T20:44:20.377Z,21.77
2023-03-08T20:49:22.126Z,19.70
2023-03-08T20:54:23.821Z,20.00
2023-03-08T20:59:28.582Z,19.10
2023-03-08T21:04:30.514Z,20.95
2023-03-08T21:09:33.191Z,19.40
2023-03-08T21:14:34.901Z,20.30
2023-03-08T21:19:37.106Z,21.15
2023-03-08T21:24:40.217Z,21.75
2023-03-08T21:29:42.131Z,19.40
2023-03-08T21:34:43.985Z,19.95
2023-03-08T21:39:46.158Z,19.35
2023-03-08T21:44:48.144Z,20.42
2023-03-08T21:49:50.278Z,18.08
2023-03-08T21:54:52.343Z,16.90
2023-03-08T21:59:55.638Z,15.23
2023-03-08T22:04:57.694Z,15.68
2023-03-08T22:09:59.515Z,13.25
2023-03-08T22:15:01.522Z,11.43
2023-03-08T22:20:05.489Z,13.98
2023-03-08T22:25:08.543Z,17.30
2023-03-08T22:30:11.778Z,14.38
2023-03-08T22:35:16.600Z,15.13
2023-03-08T22:40:19.539Z,15.10
2023-03-08T22:45:21.751Z,14.23
2023-03-08T22:50:23.759Z,13.25
2023-03-08T22:55:25.833Z,16.33
2023-03-08T23:00:28.129Z,14.90
2023-03-08T23:05:29.972Z,14.63
2023-03-08T23:10:34.414Z,17.48
2023-03-08T23:15:36.383Z,16.83
2023-03-08T23:20:39.502Z,18.23
2023-03-08T23:25:43.998Z,18.08
2023-03-08T23:30:45.770Z,17.15
2023-03-08T23:35:50.763Z,18.00
2023-03-08T23:40:52.589Z,20.88
2023-03-08T23:45:54.311Z,22.30
2023-03-08T23:50:56.058Z,22.77
2023-03-08T23:55:57.820Z,20.23
